Latest Weather Observations for Mallacoota

IDV60801

Issued at 9:05 pm EST Saturday 26 July 2014 (issued every 30 minutes, with the page automatically refreshed every 10 minutes)

About weather observations | Map of weather stations | Latest weather observations for VIC | Other Formats
Station Details ID: 084084 Name: MALLACOOTA Lat: -37.60 Lon: 149.73 Height: 22.0 m
Data from the previous 72 hours. | See also: Recent months at Mallacoota
Date/Time
EST
Temp
°C
App
Temp
°C
Dew
Point
Rel
Hum
%
Delta-T
°C
Wind Press
QNH
hPa
Press
MSL
hPa
Rain
since 9 am
mm
Dir
 
Spd
km/h
Gust
km/h
Spd
kts
Gust
kts
26/09:00pm 11.2 9.3 8.9 86 1.1 WNW 9 13 5 7 1022.1 1022.2 0.2
26/08:30pm 11.2 9.3 8.9 86 1.1 WNW 9 13 5 7 1021.9 - 0.2
26/08:00pm 10.8 8.8 8.7 87 1.0 WNW 9 13 5 7 1021.8 - 0.2
26/07:30pm 11.3 9.3 8.7 84 1.3 WNW 9 11 5 6 1021.7 - 0.2
26/07:00pm 11.9 10.0 9.1 83 1.4 WNW 9 11 5 6 1021.7 - 0.2
26/06:30pm 12.1 10.7 9.5 84 1.3 WNW 7 9 4 5 1021.6 - 0.2
26/06:00pm 12.2 11.1 9.8 85 1.2 WNW 6 11 3 6 1021.3 1021.4 0.2
26/05:30pm 12.3 11.1 9.5 83 1.4 W 6 7 3 4 1021.1 - 0.2
26/05:00pm 13.1 11.7 9.7 80 1.7 WSW 7 11 4 6 1020.8 - 0.2
26/04:30pm 13.5 12.5 10.3 81 1.7 WSW 6 9 3 5 1020.8 - 0.2
26/04:00pm 13.4 12.2 9.6 78 1.9 WSW 6 11 3 6 1020.6 - 0.2
26/03:30pm 13.8 11.0 8.4 70 2.7 SW 13 20 7 11 1020.7 - 0.0
26/03:00pm 15.5 12.4 8.7 64 3.5 SSW 15 22 8 12 1020.2 1020.2 0.0
26/02:30pm 16.2 14.3 10.5 69 3.0 S 11 20 6 11 1020.0 - 0.0
26/02:00pm 15.9 13.7 9.3 65 3.4 S 11 17 6 9 1020.0 - 0.0
26/01:30pm 15.9 12.9 9.1 64 3.5 S 15 20 8 11 1020.1 - 0.0
26/01:00pm 15.5 13.4 9.6 68 3.1 S 11 17 6 9 1020.5 - 0.0
26/12:30pm 15.9 13.9 8.6 62 3.7 S 9 13 5 7 1020.7 - 0.0
26/12:00pm 16.0 13.8 8.0 59 4.0 SSE 9 13 5 7 1021.2 1021.2 0.0
26/11:30am 16.6 14.8 7.3 54 4.6 SSW 6 11 3 6 1021.6 - 0.0
26/11:00am 15.1 13.5 8.6 65 3.3 WNW 7 9 4 5 1021.9 - 0.0
26/10:30am 12.9 10.5 6.9 67 2.9 NW 9 13 5 7 1022.2 - 0.0
26/10:00am 13.0 11.2 7.0 67 2.9 WNW 6 9 3 5 1022.4 - 0.0
26/09:30am 11.4 8.4 6.1 70 2.5 WNW 11 13 6 7 1022.2 - 0.0
26/09:00am 11.4 8.0 5.9 69 2.6 NW 13 17 7 9 1021.9 1022.0 0.0
26/08:30am 10.3 6.4 5.3 71 2.3 NW 15 17 8 9 1021.7 - 0.0
26/08:00am 9.4 5.8 4.8 73 2.1 WNW 13 19 7 10 1021.3 - 0.0
26/07:30am 8.2 4.5 4.4 77 1.7 NW 13 17 7 9 1021.3 - 0.0
26/07:00am 8.3 4.2 4.3 76 1.7 NW 15 19 8 10 1021.1 - 0.0
26/06:30am 8.8 5.2 4.8 76 1.8 NW 13 17 7 9 1020.8 - 0.0
26/06:00am 9.3 5.7 4.9 74 2.0 NW 13 17 7 9 1020.6 1020.6 0.0
26/05:30am 9.0 5.4 4.8 75 1.9 NW 13 15 7 8 1020.5 - 0.0
26/05:00am 8.9 5.3 5.1 77 1.7 NW 13 17 7 9 1020.2 - 0.0
26/04:30am 8.6 5.0 5.0 78 1.6 NW 13 19 7 10 1020.1 - 0.0
26/04:00am 9.4 5.8 5.0 74 2.0 NW 13 17 7 9 1020.1 - 0.0
26/03:30am 8.8 5.2 5.2 78 1.6 NW 13 17 7 9 1020.2 - 0.0
26/03:00am 8.8 5.7 5.4 79 1.5 NW 11 17 6 9 1020.1 1020.1 0.0
26/02:30am 9.1 6.1 6.0 81 1.4 NW 11 15 6 8 1020.3 - 0.0
26/02:00am 7.9 6.1 5.5 85 1.1 WNW 4 7 2 4 1020.5 - 0.0
26/01:30am 8.4 5.9 6.4 87 0.9 NW 9 11 5 6 1020.4 - 0.0
26/01:00am 9.1 7.1 6.9 86 1.0 NW 7 9 4 5 1020.3 - 0.0
26/12:30am 8.9 7.5 7.4 90 0.7 N 4 9 2 5 1020.4 - 0.0
26/12:00am 8.3 6.8 6.8 90 0.7 NE 4 7 2 4 1020.4 1020.4 0.0
 
Date/Time
EST
Temp
°C
App
Temp
°C
Dew
Point
Rel
Hum
%
Delta-T
°C
Wind Press
QNH
hPa
Press
MSL
hPa
Rain
since 9 am
mm
Dir
 
Spd
km/h
Gust
km/h
Spd
kts
Gust
kts
25/11:30pm 8.2 7.0 6.3 88 0.9 WNW 2 6 1 3 1020.4 - 0.0
25/11:00pm 9.8 8.1 7.7 87 1.0 NW 6 7 3 4 1020.5 - 0.0
25/10:30pm 10.3 8.4 7.7 84 1.2 WNW 7 9 4 5 1020.2 - 0.0
25/10:00pm 10.9 8.8 8.1 83 1.4 NW 9 11 5 6 1020.1 - 0.0
25/09:30pm 11.3 8.5 8.7 84 1.3 WNW 13 15 7 8 1020.2 - 0.0
25/09:00pm 10.3 8.2 8.1 86 1.1 WNW 9 13 5 7 1020.3 1020.3 0.0
25/08:30pm 11.0 8.7 8.9 87 1.0 WNW 11 17 6 9 1020.0 - 0.0
25/08:00pm 11.2 9.6 8.8 85 1.2 W 7 13 4 7 1019.9 - 0.0
25/07:30pm 11.2 8.8 8.6 84 1.3 NW 11 13 6 7 1019.6 - 0.0
25/07:00pm 11.7 9.0 8.9 83 1.4 NW 13 17 7 9 1019.2 - 0.0
25/06:30pm 11.5 9.7 9.4 87 1.1 NW 9 13 5 7 1018.9 - 0.0
25/06:00pm 11.4 9.4 8.8 84 1.3 NW 9 11 5 6 1018.4 1018.4 0.0
25/05:30pm 11.6 11.2 8.1 79 1.7 CALM 0 0 0 0 1018.0 - 0.0
25/05:00pm 13.7 13.3 8.3 70 2.7 CALM 0 0 0 0 1017.8 - 0.0
25/04:30pm 16.2 13.7 8.4 60 4.0 SSW 11 17 6 9 1017.5 - 0.0
25/04:00pm 17.0 15.9 10.8 67 3.3 S 7 13 4 7 1017.3 - 0.0
25/03:30pm 17.4 16.5 11.4 68 3.3 ESE 7 9 4 5 1017.1 - 0.0
25/03:00pm 19.8 17.1 5.5 39 7.0 WSW 9 15 5 8 1016.9 1016.9 0.0
25/02:30pm 20.0 17.5 6.7 42 6.7 W 9 15 5 8 1016.8 - 0.0
25/02:00pm 19.9 17.2 7.3 44 6.4 WNW 11 17 6 9 1016.7 - 0.0
25/01:30pm 19.7 16.7 7.8 46 6.1 NW 13 20 7 11 1016.8 - 0.0
25/01:00pm 19.2 17.1 8.2 49 5.7 WNW 9 15 5 8 1017.1 - 0.0
25/12:30pm 19.3 16.7 7.7 47 5.9 WNW 11 17 6 9 1017.1 - 0.0
25/12:00pm 19.0 16.6 8.6 51 5.4 WNW 11 17 6 9 1017.4 1017.4 0.0
25/11:30am 18.6 17.1 10.4 59 4.4 WNW 9 13 5 7 1017.9 - 0.0
25/11:00am 17.8 16.2 10.2 61 4.0 NW 9 13 5 7 1018.0 - 0.0
25/10:30am 16.1 13.4 9.1 63 3.6 NNW 13 19 7 10 1018.0 - 0.0
25/10:00am 15.2 12.5 8.9 66 3.2 NNW 13 17 7 9 1018.2 - 0.0
25/09:30am 13.8 11.2 7.8 67 3.0 NW 11 15 6 8 1018.3 - 0.0
25/09:00am 12.4 9.7 7.3 71 2.5 NNW 11 15 6 8 1018.3 1018.3 0.0
25/08:30am 10.8 7.5 6.6 75 2.0 NW 13 15 7 8 1018.0 - 0.0
25/08:00am 9.7 6.4 6.2 79 1.6 NW 13 17 7 9 1017.8 - 0.0
25/07:30am 9.3 5.5 5.9 79 1.6 NW 15 19 8 10 1017.6 - 0.0
25/07:00am 9.3 5.5 5.9 79 1.6 NW 15 19 8 10 1017.4 - 0.0
25/06:30am 9.0 5.3 6.3 83 1.2 NW 15 19 8 10 1017.2 - 0.0
25/06:00am 9.0 6.1 6.6 85 1.1 NW 11 17 6 9 1017.0 1017.0 0.0
25/05:30am 8.1 5.5 6.2 88 0.9 NNW 9 11 5 6 1016.9 - 0.0
25/05:00am 8.2 5.9 5.8 85 1.1 N 7 11 4 6 1016.9 - 0.0
25/04:30am 9.6 6.8 6.9 83 1.3 N 11 15 6 8 1016.9 - 0.0
25/04:00am 10.4 7.6 7.1 80 1.6 NNW 11 19 6 10 1017.1 - 0.0
25/03:30am 10.2 7.1 7.1 81 1.5 NNW 13 19 7 10 1016.9 - 0.0
25/03:00am 10.2 7.1 7.4 83 1.3 NNW 13 17 7 9 1016.8 1016.8 0.0
25/02:30am 10.2 7.6 7.8 85 1.2 N 11 15 6 8 1016.8 - 0.0
25/02:00am 10.4 8.9 8.3 87 1.0 N 6 9 3 5 1017.1 - 0.0
25/01:30am 10.2 8.4 8.0 86 1.1 N 7 9 4 5 1017.3 - 0.0
25/01:00am 10.3 8.5 7.9 85 1.2 NNW 7 11 4 6 1017.3 - 0.0
25/12:30am 10.4 8.6 8.0 85 1.2 NNW 7 9 4 5 1017.3 - 0.0
25/12:00am 11.0 8.9 8.4 84 1.3 NW 9 13 5 7 1017.5 1017.5 0.0
 
Date/Time
EST
Temp
°C
App
Temp
°C
Dew
Point
Rel
Hum
%
Delta-T
°C
Wind Press
QNH
hPa
Press
MSL
hPa
Rain
since 9 am
mm
Dir
 
Spd
km/h
Gust
km/h
Spd
kts
Gust
kts
24/11:30pm 11.2 9.2 8.8 85 1.2 NW 9 13 5 7 1017.8 - 0.0
24/11:00pm 11.0 9.0 8.6 85 1.2 N 9 13 5 7 1017.8 - 0.0
24/10:30pm 11.5 9.5 8.7 83 1.4 NNW 9 13 5 7 1017.9 - 0.0
24/10:00pm 11.5 9.5 8.7 83 1.4 NNW 9 15 5 8 1018.0 - 0.0
24/09:30pm 11.6 9.2 8.8 83 1.4 NNW 11 15 6 8 1018.1 - 0.0
24/09:00pm 11.7 9.3 8.6 81 1.5 NNW 11 15 6 8 1018.0 1018.0 0.0
24/08:30pm 12.0 10.0 8.7 80 1.6 NNW 9 15 5 8 1018.0 - 0.0
24/08:00pm 12.8 10.5 9.1 78 1.9 NNW 11 15 6 8 1017.8 - 0.0
24/07:30pm 11.7 10.8 9.1 84 1.3 NE 4 11 2 6 1017.7 - 0.0
24/07:00pm 12.2 10.9 9.2 82 1.5 NNW 6 9 3 5 1017.4 - 0.0
24/06:30pm 12.1 10.6 9.3 83 1.4 NNW 7 13 4 7 1017.3 - 0.0
24/06:00pm 12.0 10.6 8.8 81 1.6 N 6 9 3 5 1017.2 1017.2 0.0
24/05:30pm 12.7 10.7 8.8 77 2.0 N 9 13 5 7 1017.2 - 0.0
24/05:00pm 13.1 11.2 9.0 76 2.1 NNW 9 15 5 8 1017.1 - 0.0
24/04:30pm 13.1 11.1 8.6 74 2.3 N 9 13 5 7 1016.8 - 0.0
24/04:00pm 14.3 12.3 8.7 69 2.8 N 9 13 5 7 1016.5 - 0.0
24/03:30pm 14.5 12.3 8.0 65 3.2 N 9 13 5 7 1016.4 - 0.0
24/03:00pm 14.4 11.4 7.5 63 3.4 N 13 22 7 12 1016.2 1016.2 0.0
24/02:30pm 15.4 12.4 7.7 60 3.8 N 13 20 7 11 1016.3 - 0.0
24/02:00pm 15.8 12.4 7.8 59 4.0 N 15 22 8 12 1016.5 - 0.0
24/01:30pm 14.5 11.5 7.8 64 3.3 N 13 20 7 11 1016.8 - 0.0
24/01:00pm 14.8 11.8 7.8 63 3.5 N 13 20 7 11 1017.2 - 0.0
24/12:30pm 15.0 11.6 7.8 62 3.6 NNE 15 22 8 12 1017.4 - 0.0
24/12:00pm 15.8 11.5 7.8 59 4.0 N 20 32 11 17 1018.1 1018.1 0.0
24/11:30am 13.8 10.8 7.8 67 3.0 N 13 19 7 10 1018.7 - 0.0
24/11:00am 13.8 10.8 7.6 66 3.1 N 13 20 7 11 1019.1 - 0.0
24/10:30am 13.5 9.2 7.1 65 3.1 N 19 30 10 16 1019.3 - 0.0
24/10:00am 12.3 8.8 7.0 70 2.5 NNW 15 22 8 12 1019.4 - 0.0
24/09:30am 11.0 8.1 6.6 74 2.1 NNW 11 17 6 9 1019.5 - 0.0
24/09:00am 10.0 7.4 6.3 78 1.7 NNW 9 13 5 7 1019.6 1019.6 0.2
24/08:30am 9.3 7.1 6.2 81 1.4 N 7 11 4 6 1019.6 - 0.2
24/08:00am 8.9 6.9 6.3 84 1.2 N 6 9 3 5 1019.5 - 0.2
24/07:30am 8.0 4.9 5.6 85 1.1 NNW 11 17 6 9 1019.4 - 0.2
24/07:00am 8.1 4.8 6.2 88 0.9 N 13 20 7 11 1019.4 - 0.2
24/06:30am 7.3 3.9 5.9 91 0.6 NNW 13 19 7 10 1019.3 - 0.2
24/06:00am 6.6 3.0 5.2 91 0.6 NW 13 15 7 8 1019.1 1019.1 0.2
24/05:30am 6.7 3.5 5.3 91 0.6 NNW 11 15 6 8 1019.0 - 0.0
24/05:00am 6.3 3.4 4.9 91 0.6 NNW 9 15 5 8 1019.1 - 0.0
24/04:30am 6.7 3.2 5.3 91 0.6 NW 13 17 7 9 1019.2 - 0.0
24/04:00am 6.5 2.9 5.1 91 0.6 NW 13 17 7 9 1019.1 - 0.0
24/03:30am 6.5 2.9 5.1 91 0.6 NNW 13 15 7 8 1019.2 - 0.0
24/03:00am 5.9 2.6 4.7 92 0.5 NW 11 13 6 7 1019.3 1019.3 0.0
24/02:30am 6.0 2.7 4.6 91 0.6 NW 11 15 6 8 1019.4 - 0.0
24/02:00am 6.3 2.7 5.1 92 0.5 NW 13 17 7 9 1019.5 - 0.0
24/01:30am 6.1 2.5 4.9 92 0.5 NW 13 17 7 9 1019.7 - 0.0
24/01:00am 6.6 3.1 5.4 92 0.5 NW 13 17 7 9 1019.9 - 0.0
24/12:30am 6.9 3.5 5.7 92 0.5 NW 13 19 7 10 1020.2 - 0.0
24/12:00am 6.9 3.5 5.8 93 0.5 NNW 13 17 7 9 1020.7 1020.7 0.0
 
Date/Time
EST
Temp
°C
App
Temp
°C
Dew
Point
Rel
Hum
%
Delta-T
°C
Wind Press
QNH
hPa
Press
MSL
hPa
Rain
since 9 am
mm
Dir
 
Spd
km/h
Gust
km/h
Spd
kts
Gust
kts
23/11:30pm 6.6 3.1 5.6 93 0.4 NW 13 15 7 8 1021.2 - 0.0
23/11:00pm 6.9 3.5 5.8 93 0.5 NNW 13 17 7 9 1021.4 - 0.0
23/10:30pm 7.3 4.0 6.2 93 0.5 NNW 13 17 7 9 1021.7 - 0.0
23/10:00pm 7.0 4.0 5.8 92 0.5 NW 11 15 6 8 1021.9 - 0.0
23/09:30pm 7.3 4.3 6.2 93 0.5 NW 11 13 6 7 1021.9 - 0.0

Other Formats:

Comma delimited format used in spreadsheet applications
http://www.bom.gov.au/fwo/IDV60801/IDV60801.94935.axf

JavaScript Object Notation format (JSON) in row-major order
http://www.bom.gov.au/fwo/IDV60801/IDV60801.94935.json